sensor_id;sensor_type;location;lat;lon;timestamp;temperature;humidity
19088;DHT22;9676;50.916;13.352;2023-10-08T00:02:26;20.70;76.20
19088;DHT22;9676;50.916;13.352;2023-10-08T00:05:15;20.70;76.30
19088;DHT22;9676;50.916;13.352;2023-10-08T00:08:05;20.70;76.40
19088;DHT22;9676;50.916;13.352;2023-10-08T00:10:56;20.70;76.60
19088;DHT22;9676;50.916;13.352;2023-10-08T00:13:55;20.70;76.80
19088;DHT22;9676;50.916;13.352;2023-10-08T00:16:44;20.70;77.00
19088;DHT22;9676;50.916;13.352;2023-10-08T00:19:37;20.70;76.90
19088;DHT22;9676;50.916;13.352;2023-10-08T00:22:27;20.70;77.00
19088;DHT22;9676;50.916;13.352;2023-10-08T00:25:24;20.70;77.00
19088;DHT22;9676;50.916;13.352;2023-10-08T00:28:13;20.70;77.10
19088;DHT22;9676;50.916;13.352;2023-10-08T00:31:04;20.70;77.50
19088;DHT22;9676;50.916;13.352;2023-10-08T00:34:00;20.70;77.70
19088;DHT22;9676;50.916;13.352;2023-10-08T00:36:52;20.70;77.60
19088;DHT22;9676;50.916;13.352;2023-10-08T00:39:42;20.70;78.00
19088;DHT22;9676;50.916;13.352;2023-10-08T00:42:33;20.70;78.10
19088;DHT22;9676;50.916;13.352;2023-10-08T00:45:23;20.70;78.00
19088;DHT22;9676;50.916;13.352;2023-10-08T00:48:14;20.70;78.30
19088;DHT22;9676;50.916;13.352;2023-10-08T00:51:04;20.70;78.60
19088;DHT22;9676;50.916;13.352;2023-10-08T00:54:04;20.70;78.70
19088;DHT22;9676;50.916;13.352;2023-10-08T00:56:59;20.70;79.10
19088;DHT22;9676;50.916;13.352;2023-10-08T00:59:53;20.70;79.30
19088;DHT22;9676;50.916;13.352;2023-10-08T01:02:44;20.70;80.20
19088;DHT22;9676;50.916;13.352;2023-10-08T01:05:38;20.70;80.40
19088;DHT22;9676;50.916;13.352;2023-10-08T01:08:35;20.60;80.70
19088;DHT22;9676;50.916;13.352;2023-10-08T01:11:25;20.70;81.00
19088;DHT22;9676;50.916;13.352;2023-10-08T01:14:21;20.70;81.00
19088;DHT22;9676;50.916;13.352;2023-10-08T01:17:20;20.70;81.30
19088;DHT22;9676;50.916;13.352;2023-10-08T01:20:14;20.70;81.40
19088;DHT22;9676;50.916;13.352;2023-10-08T01:23:22;20.70;81.70
19088;DHT22;9676;50.916;13.352;2023-10-08T01:26:20;20.70;82.00
19088;DHT22;9676;50.916;13.352;2023-10-08T01:29:11;20.70;83.40
19088;DHT22;9676;50.916;13.352;2023-10-08T01:32:08;20.70;82.80
19088;DHT22;9676;50.916;13.352;2023-10-08T01:34:59;20.70;83.50
19088;DHT22;9676;50.916;13.352;2023-10-08T01:37:48;20.70;83.70
19088;DHT22;9676;50.916;13.352;2023-10-08T01:40:40;20.60;83.70
19088;DHT22;9676;50.916;13.352;2023-10-08T01:43:30;20.60;85.10
19088;DHT22;9676;50.916;13.352;2023-10-08T01:46:19;20.60;84.10
19088;DHT22;9676;50.916;13.352;2023-10-08T01:49:10;20.60;84.30
19088;DHT22;9676;50.916;13.352;2023-10-08T01:52:03;20.60;84.40
19088;DHT22;9676;50.916;13.352;2023-10-08T01:54:55;20.60;84.30
19088;DHT22;9676;50.916;13.352;2023-10-08T01:57:48;20.60;85.00
19088;DHT22;9676;50.916;13.352;2023-10-08T02:00:42;20.60;85.20
19088;DHT22;9676;50.916;13.352;2023-10-08T02:03:34;20.60;86.30
19088;DHT22;9676;50.916;13.352;2023-10-08T02:06:25;20.50;85.20
19088;DHT22;9676;50.916;13.352;2023-10-08T02:09:15;20.50;85.20
19088;DHT22;9676;50.916;13.352;2023-10-08T02:12:04;20.50;85.50
19088;DHT22;9676;50.916;13.352;2023-10-08T02:14:55;20.40;85.70
19088;DHT22;9676;50.916;13.352;2023-10-08T02:17:45;20.40;86.70
19088;DHT22;9676;50.916;13.352;2023-10-08T02:20:36;20.40;86.80
19088;DHT22;9676;50.916;13.352;2023-10-08T02:23:27;20.30;87.20
19088;DHT22;9676;50.916;13.352;2023-10-08T02:26:17;20.30;87.50
19088;DHT22;9676;50.916;13.352;2023-10-08T02:29:08;20.30;88.00
19088;DHT22;9676;50.916;13.352;2023-10-08T02:32:01;20.30;89.20
19088;DHT22;9676;50.916;13.352;2023-10-08T02:34:52;20.30;90.20
19088;DHT22;9676;50.916;13.352;2023-10-08T02:37:42;20.30;89.90
19088;DHT22;9676;50.916;13.352;2023-10-08T02:40:33;20.30;90.30
19088;DHT22;9676;50.916;13.352;2023-10-08T02:43:24;20.30;90.40
19088;DHT22;9676;50.916;13.352;2023-10-08T02:46:14;20.30;90.60
19088;DHT22;9676;50.916;13.352;2023-10-08T02:49:05;20.20;90.20
19088;DHT22;9676;50.916;13.352;2023-10-08T02:51:54;20.20;90.60
19088;DHT22;9676;50.916;13.352;2023-10-08T02:54:46;20.00;89.70
19088;DHT22;9676;50.916;13.352;2023-10-08T02:57:40;19.80;88.50
19088;DHT22;9676;50.916;13.352;2023-10-08T03:00:32;19.60;87.40
19088;DHT22;9676;50.916;13.352;2023-10-08T03:03:22;19.30;86.40
19088;DHT22;9676;50.916;13.352;2023-10-08T03:06:14;19.00;86.00
19088;DHT22;9676;50.916;13.352;2023-10-08T03:09:06;18.70;88.50
19088;DHT22;9676;50.916;13.352;2023-10-08T03:11:57;18.40;88.00
19088;DHT22;9676;50.916;13.352;2023-10-08T03:14:46;18.10;88.80
19088;DHT22;9676;50.916;13.352;2023-10-08T03:17:49;17.80;89.40
19088;DHT22;9676;50.916;13.352;2023-10-08T03:20:40;17.50;90.50
19088;DHT22;9676;50.916;13.352;2023-10-08T03:23:34;17.30;90.80
19088;DHT22;9676;50.916;13.352;2023-10-08T03:26:25;17.10;91.50
19088;DHT22;9676;50.916;13.352;2023-10-08T03:29:23;16.90;92.10
19088;DHT22;9676;50.916;13.352;2023-10-08T03:32:19;16.80;92.60
19088;DHT22;9676;50.916;13.352;2023-10-08T03:35:14;16.70;93.10
19088;DHT22;9676;50.916;13.352;2023-10-08T03:38:05;16.60;94.10
19088;DHT22;9676;50.916;13.352;2023-10-08T03:41:11;16.50;94.40
19088;DHT22;9676;50.916;13.352;2023-10-08T03:44:04;16.40;95.50
19088;DHT22;9676;50.916;13.352;2023-10-08T03:47:00;16.30;95.70
19088;DHT22;9676;50.916;13.352;2023-10-08T03:49:57;16.20;95.70
19088;DHT22;9676;50.916;13.352;2023-10-08T03:52:53;16.10;96.00
19088;DHT22;9676;50.916;13.352;2023-10-08T03:55:43;16.00;96.40
19088;DHT22;9676;50.916;13.352;2023-10-08T03:58:34;16.00;97.00
19088;DHT22;9676;50.916;13.352;2023-10-08T04:01:29;16.00;97.50
19088;DHT22;9676;50.916;13.352;2023-10-08T04:04:21;15.90;97.20
19088;DHT22;9676;50.916;13.352;2023-10-08T04:07:19;15.90;97.60
19088;DHT22;9676;50.916;13.352;2023-10-08T04:10:27;15.80;97.70
19088;DHT22;9676;50.916;13.352;2023-10-08T04:13:49;15.80;98.00
19088;DHT22;9676;50.916;13.352;2023-10-08T04:16:38;15.80;98.50
19088;DHT22;9676;50.916;13.352;2023-10-08T04:19:29;15.80;98.40
19088;DHT22;9676;50.916;13.352;2023-10-08T04:22:19;15.80;98.70
19088;DHT22;9676;50.916;13.352;2023-10-08T04:25:08;15.70;99.00
19088;DHT22;9676;50.916;13.352;2023-10-08T04:27:59;15.70;99.50
19088;DHT22;9676;50.916;13.352;2023-10-08T04:30:50;15.60;99.70
19088;DHT22;9676;50.916;13.352;2023-10-08T04:33:42;15.50;99.30
19088;DHT22;9676;50.916;13.352;2023-10-08T04:36:32;15.40;99.70
19088;DHT22;9676;50.916;13.352;2023-10-08T04:39:22;15.30;99.90
19088;DHT22;9676;50.916;13.352;2023-10-08T04:42:19;15.10;99.90
19088;DHT22;9676;50.916;13.352;2023-10-08T04:45:14;15.00;99.90
19088;DHT22;9676;50.916;13.352;2023-10-08T04:48:09;14.80;99.90
19088;DHT22;9676;50.916;13.352;2023-10-08T04:50:59;14.70;99.90
19088;DHT22;9676;50.916;13.352;2023-10-08T04:53:49;14.60;99.90
19088;DHT22;9676;50.916;13.352;2023-10-08T04:56:38;14.60;99.90
19088;DHT22;9676;50.916;13.352;2023-10-08T04:59:28;14.50;99.90
19088;DHT22;9676;50.916;13.352;2023-10-08T05:02:22;14.40;99.90
19088;DHT22;9676;50.916;13.352;2023-10-08T05:05:23;14.40;99.90
19088;DHT22;9676;50.916;13.352;2023-10-08T05:08:17;14.40;99.90
19088;DHT22;9676;50.916;13.352;2023-10-08T05:11:16;14.30;99.90
19088;DHT22;9676;50.916;13.352;2023-10-08T05:14:25;14.30;99.90
19088;DHT22;9676;50.916;13.352;2023-10-08T05:17:16;14.30;99.90
19088;DHT22;9676;50.916;13.352;2023-10-08T05:20:11;14.30;99.90
19088;DHT22;9676;50.916;13.352;2023-10-08T05:23:07;14.20;99.90
19088;DHT22;9676;50.916;13.352;2023-10-08T05:26:29;14.20;99.90
19088;DHT22;9676;50.916;13.352;2023-10-08T05:29:29;14.20;99.90
19088;DHT22;9676;50.916;13.352;2023-10-08T05:32:35;14.10;99.90
19088;DHT22;9676;50.916;13.352;2023-10-08T05:35:47;14.00;99.90
19088;DHT22;9676;50.916;13.352;2023-10-08T05:38:44;14.00;99.90
19088;DHT22;9676;50.916;13.352;2023-10-08T05:41:48;14.00;99.90
19088;DHT22;9676;50.916;13.352;2023-10-08T05:44:40;13.90;99.90
19088;DHT22;9676;50.916;13.352;2023-10-08T05:47:34;13.90;99.90
19088;DHT22;9676;50.916;13.352;2023-10-08T05:50:26;13.80;99.90
19088;DHT22;9676;50.916;13.352;2023-10-08T05:53:30;13.90;99.90
19088;DHT22;9676;50.916;13.352;2023-10-08T05:56:33;13.90;99.90
19088;DHT22;9676;50.916;13.352;2023-10-08T05:59:42;13.90;99.90
19088;DHT22;9676;50.916;13.352;2023-10-08T06:02:43;13.90;99.90
19088;DHT22;9676;50.916;13.352;2023-10-08T06:05:48;13.90;99.90
19088;DHT22;9676;50.916;13.352;2023-10-08T06:08:55;13.90;99.90
19088;DHT22;9676;50.916;13.352;2023-10-08T06:12:10;14.00;99.90
19088;DHT22;9676;50.916;13.352;2023-10-08T06:15:08;14.00;99.90
19088;DHT22;9676;50.916;13.352;2023-10-08T06:17:56;14.00;99.90
19088;DHT22;9676;50.916;13.352;2023-10-08T06:20:53;14.00;99.90
19088;DHT22;9676;50.916;13.352;2023-10-08T06:23:43;14.10;99.90
19088;DHT22;9676;50.916;13.352;2023-10-08T06:26:35;14.10;99.90
19088;DHT22;9676;50.916;13.352;2023-10-08T06:29:31;14.10;99.90
19088;DHT22;9676;50.916;13.352;2023-10-08T06:32:21;14.20;99.90
19088;DHT22;9676;50.916;13.352;2023-10-08T06:35:12;14.20;99.90
19088;DHT22;9676;50.916;13.352;2023-10-08T06:38:05;14.20;99.90
19088;DHT22;9676;50.916;13.352;2023-10-08T06:40:57;14.30;99.90
19088;DHT22;9676;50.916;13.352;2023-10-08T06:43:49;14.30;99.90
19088;DHT22;9676;50.916;13.352;2023-10-08T06:46:43;14.20;99.90
19088;DHT22;9676;50.916;13.352;2023-10-08T06:49:33;14.20;99.90
19088;DHT22;9676;50.916;13.352;2023-10-08T06:52:23;14.10;99.90
19088;DHT22;9676;50.916;13.352;2023-10-08T06:55:14;14.10;99.90
19088;DHT22;9676;50.916;13.352;2023-10-08T06:58:06;14.10;99.90
19088;DHT22;9676;50.916;13.352;2023-10-08T07:00:56;14.00;99.90
19088;DHT22;9676;50.916;13.352;2023-10-08T07:03:48;14.00;99.90
19088;DHT22;9676;50.916;13.352;2023-10-08T07:06:39;13.90;99.90
19088;DHT22;9676;50.916;13.352;2023-10-08T07:09:28;13.80;99.90
19088;DHT22;9676;50.916;13.352;2023-10-08T07:12:18;13.70;99.90
19088;DHT22;9676;50.916;13.352;2023-10-08T07:15:09;13.60;99.90
19088;DHT22;9676;50.916;13.352;2023-10-08T07:18:01;13.50;99.90
19088;DHT22;9676;50.916;13.352;2023-10-08T07:20:59;13.40;99.90
19088;DHT22;9676;50.916;13.352;2023-10-08T07:23:50;13.40;99.90
19088;DHT22;9676;50.916;13.352;2023-10-08T07:26:45;13.40;99.90
19088;DHT22;9676;50.916;13.352;2023-10-08T07:29:37;13.30;99.90
19088;DHT22;9676;50.916;13.352;2023-10-08T07:32:27;13.30;99.90
19088;DHT22;9676;50.916;13.352;2023-10-08T07:35:19;13.30;99.90
19088;DHT22;9676;50.916;13.352;2023-10-08T07:38:15;13.30;99.90
19088;DHT22;9676;50.916;13.352;2023-10-08T07:41:04;13.40;99.90
19088;DHT22;9676;50.916;13.352;2023-10-08T07:43:54;13.40;99.90
19088;DHT22;9676;50.916;13.352;2023-10-08T07:46:45;13.50;99.90
19088;DHT22;9676;50.916;13.352;2023-10-08T07:49:34;13.50;99.90
19088;DHT22;9676;50.916;13.352;2023-10-08T07:52:25;13.60;99.90
19088;DHT22;9676;50.916;13.352;2023-10-08T07:55:16;13.60;99.90
19088;DHT22;9676;50.916;13.352;2023-10-08T07:58:06;13.70;99.90
19088;DHT22;9676;50.916;13.352;2023-10-08T08:00:57;13.80;99.90
19088;DHT22;9676;50.916;13.352;2023-10-08T08:03:54;13.80;99.90
19088;DHT22;9676;50.916;13.352;2023-10-08T08:06:46;13.80;99.90
19088;DHT22;9676;50.916;13.352;2023-10-08T08:09:37;13.90;99.90
19088;DHT22;9676;50.916;13.352;2023-10-08T08:12:28;13.90;99.90
19088;DHT22;9676;50.916;13.352;2023-10-08T08:15:21;14.00;99.90
19088;DHT22;9676;50.916;13.352;2023-10-08T08:18:11;14.00;99.90
19088;DHT22;9676;50.916;13.352;2023-10-08T08:21:10;14.10;99.90
19088;DHT22;9676;50.916;13.352;2023-10-08T08:24:03;14.10;99.90
19088;DHT22;9676;50.916;13.352;2023-10-08T08:26:54;14.20;99.90
19088;DHT22;9676;50.916;13.352;2023-10-08T08:29:58;14.20;99.90
19088;DHT22;9676;50.916;13.352;2023-10-08T08:32:58;14.30;99.90
19088;DHT22;9676;50.916;13.352;2023-10-08T08:35:57;14.30;99.90
19088;DHT22;9676;50.916;13.352;2023-10-08T08:38:49;14.40;99.90
19088;DHT22;9676;50.916;13.352;2023-10-08T08:41:39;14.50;99.90
19088;DHT22;9676;50.916;13.352;2023-10-08T08:44:29;14.50;99.90
19088;DHT22;9676;50.916;13.352;2023-10-08T08:47:22;14.60;99.90
19088;DHT22;9676;50.916;13.352;2023-10-08T08:50:13;14.60;99.90
19088;DHT22;9676;50.916;13.352;2023-10-08T08:53:03;14.70;99.90
19088;DHT22;9676;50.916;13.352;2023-10-08T08:55:54;14.80;99.90
19088;DHT22;9676;50.916;13.352;2023-10-08T08:58:45;14.80;99.90
19088;DHT22;9676;50.916;13.352;2023-10-08T09:01:36;14.90;99.90
19088;DHT22;9676;50.916;13.352;2023-10-08T09:04:31;15.00;99.90
19088;DHT22;9676;50.916;13.352;2023-10-08T09:07:21;15.00;99.90
19088;DHT22;9676;50.916;13.352;2023-10-08T09:10:10;15.10;99.90
19088;DHT22;9676;50.916;13.352;2023-10-08T09:13:00;15.10;99.90
19088;DHT22;9676;50.916;13.352;2023-10-08T09:15:51;15.20;99.90
19088;DHT22;9676;50.916;13.352;2023-10-08T09:18:44;15.20;99.90
19088;DHT22;9676;50.916;13.352;2023-10-08T09:21:35;15.30;99.90
19088;DHT22;9676;50.916;13.352;2023-10-08T09:24:24;15.40;99.90
19088;DHT22;9676;50.916;13.352;2023-10-08T09:27:14;15.40;99.90
19088;DHT22;9676;50.916;13.352;2023-10-08T09:30:07;15.50;99.90
19088;DHT22;9676;50.916;13.352;2023-10-08T09:32:57;15.60;99.90
19088;DHT22;9676;50.916;13.352;2023-10-08T09:35:47;15.70;99.90
19088;DHT22;9676;50.916;13.352;2023-10-08T09:38:40;15.80;99.90
19088;DHT22;9676;50.916;13.352;2023-10-08T09:41:31;15.90;99.90
19088;DHT22;9676;50.916;13.352;2023-10-08T09:44:22;16.00;99.90
19088;DHT22;9676;50.916;13.352;2023-10-08T09:47:19;16.00;99.90
19088;DHT22;9676;50.916;13.352;2023-10-08T09:50:10;16.10;99.90
19088;DHT22;9676;50.916;13.352;2023-10-08T09:53:01;16.10;99.90
19088;DHT22;9676;50.916;13.352;2023-10-08T09:56:13;16.20;99.90
19088;DHT22;9676;50.916;13.352;2023-10-08T09:59:04;16.30;99.90
19088;DHT22;9676;50.916;13.352;2023-10-08T10:01:55;16.40;99.90
19088;DHT22;9676;50.916;13.352;2023-10-08T10:04:50;16.50;99.90
19088;DHT22;9676;50.916;13.352;2023-10-08T10:07:41;16.60;99.90
19088;DHT22;9676;50.916;13.352;2023-10-08T10:10:32;16.70;99.90
19088;DHT22;9676;50.916;13.352;2023-10-08T10:13:27;16.80;99.90
19088;DHT22;9676;50.916;13.352;2023-10-08T10:16:18;16.80;99.90
19088;DHT22;9676;50.916;13.352;2023-10-08T10:19:16;16.90;99.90
19088;DHT22;9676;50.916;13.352;2023-10-08T10:22:10;17.00;99.90
19088;DHT22;9676;50.916;13.352;2023-10-08T10:25:01;17.10;99.90
19088;DHT22;9676;50.916;13.352;2023-10-08T10:28:21;17.30;99.90
19088;DHT22;9676;50.916;13.352;2023-10-08T10:31:19;17.50;99.90
19088;DHT22;9676;50.916;13.352;2023-10-08T10:34:08;17.60;99.90
19088;DHT22;9676;50.916;13.352;2023-10-08T10:36:59;17.70;99.90
19088;DHT22;9676;50.916;13.352;2023-10-08T10:39:57;17.80;99.90
19088;DHT22;9676;50.916;13.352;2023-10-08T10:42:48;17.90;99.90
19088;DHT22;9676;50.916;13.352;2023-10-08T10:45:43;18.00;99.90
19088;DHT22;9676;50.916;13.352;2023-10-08T10:48:34;18.10;99.90
19088;DHT22;9676;50.916;13.352;2023-10-08T10:51:27;18.20;99.90
19088;DHT22;9676;50.916;13.352;2023-10-08T10:54:17;18.30;99.90
19088;DHT22;9676;50.916;13.352;2023-10-08T10:57:11;18.40;99.90
19088;DHT22;9676;50.916;13.352;2023-10-08T11:00:07;18.40;99.90
19088;DHT22;9676;50.916;13.352;2023-10-08T11:03:29;18.50;99.90
19088;DHT22;9676;50.916;13.352;2023-10-08T11:06:23;18.60;99.90
19088;DHT22;9676;50.916;13.352;2023-10-08T11:09:13;18.60;99.90
19088;DHT22;9676;50.916;13.352;2023-10-08T11:12:06;18.70;99.90
19088;DHT22;9676;50.916;13.352;2023-10-08T11:15:00;18.70;99.90
19088;DHT22;9676;50.916;13.352;2023-10-08T11:17:53;18.80;99.90
19088;DHT22;9676;50.916;13.352;2023-10-08T11:20:46;18.90;99.90
19088;DHT22;9676;50.916;13.352;2023-10-08T11:23:42;19.00;99.90
19088;DHT22;9676;50.916;13.352;2023-10-08T11:26:36;19.00;99.90
19088;DHT22;9676;50.916;13.352;2023-10-08T11:29:27;19.00;99.90
19088;DHT22;9676;50.916;13.352;2023-10-08T11:32:17;19.00;99.90
19088;DHT22;9676;50.916;13.352;2023-10-08T11:35:15;19.00;99.90
19088;DHT22;9676;50.916;13.352;2023-10-08T11:38:06;19.10;99.90
19088;DHT22;9676;50.916;13.352;2023-10-08T11:41:10;19.10;99.90
19088;DHT22;9676;50.916;13.352;2023-10-08T11:44:08;19.20;99.90
19088;DHT22;9676;50.916;13.352;2023-10-08T11:47:01;19.30;99.90
19088;DHT22;9676;50.916;13.352;2023-10-08T11:50:00;19.40;99.90
19088;DHT22;9676;50.916;13.352;2023-10-08T11:52:59;19.50;99.90
19088;DHT22;9676;50.916;13.352;2023-10-08T11:55:52;19.50;99.90
19088;DHT22;9676;50.916;13.352;2023-10-08T11:58:44;19.50;99.90
19088;DHT22;9676;50.916;13.352;2023-10-08T12:01:34;19.50;99.90
19088;DHT22;9676;50.916;13.352;2023-10-08T12:04:25;19.60;99.90
19088;DHT22;9676;50.916;13.352;2023-10-08T12:07:17;19.60;99.90
19088;DHT22;9676;50.916;13.352;2023-10-08T12:10:07;19.50;99.90
19088;DHT22;9676;50.916;13.352;2023-10-08T12:13:00;19.50;99.90
19088;DHT22;9676;50.916;13.352;2023-10-08T12:15:53;19.50;99.90
19088;DHT22;9676;50.916;13.352;2023-10-08T12:18:53;19.40;99.90
19088;DHT22;9676;50.916;13.352;2023-10-08T12:21:46;19.30;99.90
19088;DHT22;9676;50.916;13.352;2023-10-08T12:24:36;19.30;99.90
19088;DHT22;9676;50.916;13.352;2023-10-08T12:27:26;19.30;99.90
19088;DHT22;9676;50.916;13.352;2023-10-08T12:30:17;19.30;99.90
19088;DHT22;9676;50.916;13.352;2023-10-08T12:33:07;19.30;99.90
19088;DHT22;9676;50.916;13.352;2023-10-08T12:36:00;19.30;99.90
19088;DHT22;9676;50.916;13.352;2023-10-08T12:38:59;19.40;99.90
19088;DHT22;9676;50.916;13.352;2023-10-08T12:41:56;19.40;99.90
19088;DHT22;9676;50.916;13.352;2023-10-08T12:44:53;19.50;99.90
19088;DHT22;9676;50.916;13.352;2023-10-08T12:47:48;19.50;99.90
19088;DHT22;9676;50.916;13.352;2023-10-08T12:50:38;19.60;99.90
19088;DHT22;9676;50.916;13.352;2023-10-08T12:53:31;19.70;99.90
19088;DHT22;9676;50.916;13.352;2023-10-08T12:56:22;19.80;99.90
19088;DHT22;9676;50.916;13.352;2023-10-08T12:59:20;19.90;99.90
19088;DHT22;9676;50.916;13.352;2023-10-08T13:02:10;20.00;99.90
19088;DHT22;9676;50.916;13.352;2023-10-08T13:05:00;20.10;99.90
19088;DHT22;9676;50.916;13.352;2023-10-08T13:07:54;20.20;99.90
19088;DHT22;9676;50.916;13.352;2023-10-08T13:10:44;20.20;99.90
19088;DHT22;9676;50.916;13.352;2023-10-08T13:13:33;20.20;99.90
19088;DHT22;9676;50.916;13.352;2023-10-08T13:16:25;20.20;99.90
19088;DHT22;9676;50.916;13.352;2023-10-08T13:19:19;20.10;99.90
19088;DHT22;9676;50.916;13.352;2023-10-08T13:22:09;20.00;99.90
19088;DHT22;9676;50.916;13.352;2023-10-08T13:25:07;19.90;99.90
19088;DHT22;9676;50.916;13.352;2023-10-08T13:27:57;19.80;99.90
19088;DHT22;9676;50.916;13.352;2023-10-08T13:30:49;19.80;99.90
19088;DHT22;9676;50.916;13.352;2023-10-08T13:33:43;19.80;99.90
19088;DHT22;9676;50.916;13.352;2023-10-08T13:36:37;19.80;99.90
19088;DHT22;9676;50.916;13.352;2023-10-08T13:39:29;19.80;99.90
19088;DHT22;9676;50.916;13.352;2023-10-08T13:42:18;19.80;99.90
19088;DHT22;9676;50.916;13.352;2023-10-08T13:45:09;19.80;99.90
19088;DHT22;9676;50.916;13.352;2023-10-08T13:48:13;19.80;99.90
19088;DHT22;9676;50.916;13.352;2023-10-08T13:51:03;19.90;99.90
19088;DHT22;9676;50.916;13.352;2023-10-08T13:53:58;19.80;99.90
19088;DHT22;9676;50.916;13.352;2023-10-08T13:56:49;19.90;99.90
19088;DHT22;9676;50.916;13.352;2023-10-08T13:59:39;19.80;99.90
19088;DHT22;9676;50.916;13.352;2023-10-08T14:02:30;19.80;99.90
19088;DHT22;9676;50.916;13.352;2023-10-08T14:05:20;19.70;99.90
19088;DHT22;9676;50.916;13.352;2023-10-08T14:08:12;19.60;99.90
19088;DHT22;9676;50.916;13.352;2023-10-08T14:11:03;19.50;99.90
19088;DHT22;9676;50.916;13.352;2023-10-08T14:13:54;19.50;99.90
19088;DHT22;9676;50.916;13.352;2023-10-08T14:16:44;19.40;99.90
19088;DHT22;9676;50.916;13.352;2023-10-08T14:19:39;19.30;99.90
19088;DHT22;9676;50.916;13.352;2023-10-08T14:22:34;19.30;99.90
19088;DHT22;9676;50.916;13.352;2023-10-08T14:25:26;19.30;99.90
19088;DHT22;9676;50.916;13.352;2023-10-08T14:28:16;19.30;99.90
19088;DHT22;9676;50.916;13.352;2023-10-08T14:31:12;19.30;99.90
19088;DHT22;9676;50.916;13.352;2023-10-08T14:34:03;19.30;99.90
19088;DHT22;9676;50.916;13.352;2023-10-08T14:37:06;19.30;99.90
19088;DHT22;9676;50.916;13.352;2023-10-08T14:40:13;19.30;99.90
19088;DHT22;9676;50.916;13.352;2023-10-08T14:43:20;19.30;99.90
19088;DHT22;9676;50.916;13.352;2023-10-08T14:46:13;19.30;99.90
19088;DHT22;9676;50.916;13.352;2023-10-08T14:49:04;19.10;99.90
19088;DHT22;9676;50.916;13.352;2023-10-08T14:51:57;19.20;99.90
19088;DHT22;9676;50.916;13.352;2023-10-08T14:54:47;19.10;99.90
19088;DHT22;9676;50.916;13.352;2023-10-08T14:57:37;19.10;99.90
19088;DHT22;9676;50.916;13.352;2023-10-08T15:00:27;19.00;99.90
19088;DHT22;9676;50.916;13.352;2023-10-08T15:03:18;19.00;99.90
19088;DHT22;9676;50.916;13.352;2023-10-08T15:06:09;18.90;99.90
19088;DHT22;9676;50.916;13.352;2023-10-08T15:08:59;18.90;99.90
19088;DHT22;9676;50.916;13.352;2023-10-08T15:11:49;18.80;99.90
19088;DHT22;9676;50.916;13.352;2023-10-08T15:14:40;18.80;99.90
19088;DHT22;9676;50.916;13.352;2023-10-08T15:17:30;18.70;99.90
19088;DHT22;9676;50.916;13.352;2023-10-08T15:20:23;18.70;99.90
19088;DHT22;9676;50.916;13.352;2023-10-08T15:23:12;18.60;99.90
19088;DHT22;9676;50.916;13.352;2023-10-08T15:26:02;18.40;99.90
19088;DHT22;9676;50.916;13.352;2023-10-08T15:28:51;18.40;99.90
19088;DHT22;9676;50.916;13.352;2023-10-08T15:31:41;18.20;99.90
19088;DHT22;9676;50.916;13.352;2023-10-08T15:34:30;18.10;99.90
19088;DHT22;9676;50.916;13.352;2023-10-08T15:37:27;18.00;99.90
19088;DHT22;9676;50.916;13.352;2023-10-08T15:40:16;17.80;99.90
19088;DHT22;9676;50.916;13.352;2023-10-08T15:43:07;17.70;99.90
19088;DHT22;9676;50.916;13.352;2023-10-08T15:45:56;17.60;99.90
19088;DHT22;9676;50.916;13.352;2023-10-08T15:48:46;17.40;99.90
19088;DHT22;9676;50.916;13.352;2023-10-08T15:51:35;17.30;99.90
19088;DHT22;9676;50.916;13.352;2023-10-08T15:54:27;17.10;99.90
19088;DHT22;9676;50.916;13.352;2023-10-08T15:57:17;17.00;99.90
19088;DHT22;9676;50.916;13.352;2023-10-08T16:00:07;16.90;99.90
19088;DHT22;9676;50.916;13.352;2023-10-08T16:02:57;16.80;99.90
19088;DHT22;9676;50.916;13.352;2023-10-08T16:05:47;16.70;99.90
19088;DHT22;9676;50.916;13.352;2023-10-08T16:08:38;16.60;99.90
19088;DHT22;9676;50.916;13.352;2023-10-08T16:11:29;16.50;99.90
19088;DHT22;9676;50.916;13.352;2023-10-08T16:14:18;16.40;99.90
19088;DHT22;9676;50.916;13.352;2023-10-08T16:17:09;16.30;99.90
19088;DHT22;9676;50.916;13.352;2023-10-08T16:20:02;16.20;99.90
19088;DHT22;9676;50.916;13.352;2023-10-08T16:23:01;16.00;99.90
19088;DHT22;9676;50.916;13.352;2023-10-08T16:25:53;16.00;99.90
19088;DHT22;9676;50.916;13.352;2023-10-08T16:28:44;15.90;99.90
19088;DHT22;9676;50.916;13.352;2023-10-08T16:31:33;15.80;99.90
19088;DHT22;9676;50.916;13.352;2023-10-08T16:34:29;15.70;99.90
19088;DHT22;9676;50.916;13.352;2023-10-08T16:37:18;15.70;99.90
19088;DHT22;9676;50.916;13.352;2023-10-08T16:40:10;15.60;99.90
19088;DHT22;9676;50.916;13.352;2023-10-08T16:43:01;15.60;99.90
19088;DHT22;9676;50.916;13.352;2023-10-08T16:45:51;15.50;99.90
19088;DHT22;9676;50.916;13.352;2023-10-08T16:48:41;15.40;99.90
19088;DHT22;9676;50.916;13.352;2023-10-08T16:51:33;15.30;99.90
19088;DHT22;9676;50.916;13.352;2023-10-08T16:54:22;15.30;99.90
19088;DHT22;9676;50.916;13.352;2023-10-08T16:57:12;15.20;99.90
19088;DHT22;9676;50.916;13.352;2023-10-08T17:00:02;15.20;99.90
19088;DHT22;9676;50.916;13.352;2023-10-08T17:03:00;15.10;99.90
19088;DHT22;9676;50.916;13.352;2023-10-08T17:05:50;15.10;99.90
19088;DHT22;9676;50.916;13.352;2023-10-08T17:08:40;15.00;99.90
19088;DHT22;9676;50.916;13.352;2023-10-08T17:11:29;15.00;99.90
19088;DHT22;9676;50.916;13.352;2023-10-08T17:14:23;14.90;99.90
19088;DHT22;9676;50.916;13.352;2023-10-08T17:17:12;14.80;99.90
19088;DHT22;9676;50.916;13.352;2023-10-08T17:20:04;14.80;99.90
19088;DHT22;9676;50.916;13.352;2023-10-08T17:22:56;14.70;99.90
19088;DHT22;9676;50.916;13.352;2023-10-08T17:25:46;14.70;99.90
19088;DHT22;9676;50.916;13.352;2023-10-08T17:28:36;14.70;99.90
19088;DHT22;9676;50.916;13.352;2023-10-08T17:31:26;14.70;99.90
19088;DHT22;9676;50.916;13.352;2023-10-08T17:34:16;14.70;99.90
19088;DHT22;9676;50.916;13.352;2023-10-08T17:37:08;14.70;99.90
19088;DHT22;9676;50.916;13.352;2023-10-08T17:39:58;14.70;99.90
19088;DHT22;9676;50.916;13.352;2023-10-08T17:42:47;14.70;99.90
19088;DHT22;9676;50.916;13.352;2023-10-08T17:45:37;14.70;99.90
19088;DHT22;9676;50.916;13.352;2023-10-08T17:48:29;14.70;99.90
19088;DHT22;9676;50.916;13.352;2023-10-08T17:51:24;14.80;99.90
19088;DHT22;9676;50.916;13.352;2023-10-08T17:54:15;14.80;99.90
19088;DHT22;9676;50.916;13.352;2023-10-08T17:57:04;14.80;99.90
19088;DHT22;9676;50.916;13.352;2023-10-08T17:59:54;14.80;99.90
19088;DHT22;9676;50.916;13.352;2023-10-08T18:02:44;14.80;99.90
19088;DHT22;9676;50.916;13.352;2023-10-08T18:05:34;14.80;99.90
19088;DHT22;9676;50.916;13.352;2023-10-08T18:08:25;14.80;99.90
19088;DHT22;9676;50.916;13.352;2023-10-08T18:11:25;14.80;99.90
19088;DHT22;9676;50.916;13.352;2023-10-08T18:14:15;14.80;99.90